createdAt,value
2022-08-17T00:01:31.434Z,100556.63
2022-08-17T00:04:19.477Z,100562.31
2022-08-17T00:06:48.629Z,100555.41
2022-08-17T00:09:18.948Z,100559.66
2022-08-17T00:12:40.798Z,100563.91
2022-08-17T00:14:35.939Z,100553.34
2022-08-17T00:17:03.861Z,100552.44
2022-08-17T00:19:32.421Z,100566.44
2022-08-17T00:22:31.423Z,100572.94
2022-08-17T00:24:52.127Z,100577.72
2022-08-17T00:27:19.520Z,100575.00
2022-08-17T00:29:47.812Z,100570.03
2022-08-17T00:33:15.945Z,100572.44
2022-08-17T00:35:08.810Z,100569.81
2022-08-17T00:37:35.393Z,100578.44
2022-08-17T00:40:02.408Z,100569.81
2022-08-17T00:42:31.120Z,100575.00
2022-08-17T00:44:58.695Z,100571.66
2022-08-17T00:47:25.244Z,100568.91
2022-08-17T00:49:52.106Z,100564.97
2022-08-17T00:52:23.224Z,100567.38
2022-08-17T00:54:53.891Z,100558.53
2022-08-17T00:57:26.244Z,100556.47
2022-08-17T01:00:02.477Z,100553.69
2022-08-17T01:02:42.711Z,100557.97
2022-08-17T01:05:18.696Z,100569.25
2022-08-17T01:07:49.205Z,100566.00
2022-08-17T01:11:00.678Z,100561.53
2022-08-17T01:13:07.598Z,100559.56
2022-08-17T01:15:40.220Z,100564.28
2022-08-17T01:18:10.373Z,100566.94
2022-08-17T01:20:47.997Z,100565.78
2022-08-17T01:23:18.461Z,100566.47
2022-08-17T01:25:54.059Z,100562.78
2022-08-17T01:28:52.299Z,100563.81
2022-08-17T01:31:09.568Z,100570.50
2022-08-17T01:33:37.185Z,100568.53
2022-08-17T01:36:07.174Z,100573.59
2022-08-17T01:38:38.815Z,100573.19
2022-08-17T01:41:14.625Z,100568.41
2022-08-17T01:44:02.764Z,100572.06
2022-08-17T01:46:33.382Z,100580.53
2022-08-17T01:49:00.764Z,100578.41
2022-08-17T01:51:32.527Z,100576.44
2022-08-17T01:54:02.519Z,100566.66
2022-08-17T01:56:30.270Z,100574.13
2022-08-17T01:58:58.115Z,100571.50
2022-08-17T02:01:27.845Z,100571.59
2022-08-17T02:04:00.911Z,100574.81
2022-08-17T02:06:44.802Z,100573.00
2022-08-17T02:09:23.318Z,100567.81
2022-08-17T02:11:54.592Z,100568.41
2022-08-17T02:14:21.576Z,100561.19
2022-08-17T02:16:49.695Z,100560.53
2022-08-17T02:19:24.059Z,100563.06
2022-08-17T02:21:54.201Z,100559.47
2022-08-17T02:25:00.385Z,100559.47
2022-08-17T02:27:13.647Z,100564.16
2022-08-17T02:29:40.129Z,100557.22
2022-08-17T02:32:06.924Z,100564.28
2022-08-17T02:34:33.382Z,100559.63
2022-08-17T02:36:59.884Z,100566.94
2022-08-17T02:39:26.427Z,100567.06
2022-08-17T02:42:01.126Z,100561.34
2022-08-17T02:44:39.507Z,100572.38
2022-08-17T02:47:08.752Z,100570.50
2022-08-17T02:49:35.735Z,100562.22
2022-08-17T02:52:04.858Z,100569.09
2022-08-17T02:54:41.458Z,100555.75
2022-08-17T02:57:09.473Z,100566.81
2022-08-17T02:59:36.017Z,100557.63
2022-08-17T03:04:54.005Z,100560.19
2022-08-17T03:07:30.922Z,100557.91
2022-08-17T03:09:57.373Z,100557.09
2022-08-17T03:12:23.864Z,100555.16
2022-08-17T03:14:50.872Z,100556.06
2022-08-17T03:17:18.003Z,100560.13
2022-08-17T03:19:44.732Z,100550.44
2022-08-17T03:22:36.247Z,100557.22
2022-08-17T03:25:04.606Z,100557.78
2022-08-17T03:27:38.147Z,100553.72
2022-08-17T03:30:10.666Z,100558.44
2022-08-17T03:32:47.222Z,100566.63
2022-08-17T03:35:16.027Z,100564.22
2022-08-17T03:37:45.710Z,100557.56
2022-08-17T03:40:14.724Z,100558.22
2022-08-17T03:42:41.945Z,100552.31
2022-08-17T03:45:15.424Z,100558.84
2022-08-17T03:48:01.367Z,100564.34
2022-08-17T03:50:46.670Z,100559.28
2022-08-17T03:53:36.330Z,100554.19
2022-08-17T03:56:23.221Z,100554.84
2022-08-17T03:58:50.703Z,100556.31
2022-08-17T04:01:18.073Z,100559.63
2022-08-17T04:03:44.835Z,100562.06
2022-08-17T04:06:11.324Z,100565.13
2022-08-17T04:08:37.867Z,100563.72
2022-08-17T04:11:04.343Z,100560.06
2022-08-17T04:13:30.838Z,100557.31
2022-08-17T04:15:59.145Z,100556.34
2022-08-17T04:18:26.034Z,100557.69
2022-08-17T04:20:52.550Z,100556.06
2022-08-17T04:23:28.309Z,100565.41
2022-08-17T04:25:55.071Z,100549.00
2022-08-17T04:28:21.553Z,100556.28
2022-08-17T04:30:51.194Z,100558.81
2022-08-17T04:33:26.679Z,100556.34
2022-08-17T04:35:56.539Z,100557.94
2022-08-17T04:38:27.420Z,100564.59
2022-08-17T04:41:15.372Z,100560.72
2022-08-17T04:43:44.480Z,100565.44
2022-08-17T04:46:14.859Z,100573.69
2022-08-17T04:48:44.192Z,100572.06
2022-08-17T04:51:23.566Z,100578.81
2022-08-17T04:53:55.041Z,100581.66
2022-08-17T04:56:23.357Z,100579.84
2022-08-17T04:58:51.529Z,100584.34
2022-08-17T05:01:23.653Z,100584.50
2022-08-17T05:03:53.368Z,100579.59
2022-08-17T05:06:20.649Z,100586.03
2022-08-17T05:08:47.247Z,100591.84
2022-08-17T05:11:14.852Z,100587.72
2022-08-17T05:13:41.440Z,100595.81
2022-08-17T05:16:09.024Z,100594.03
2022-08-17T05:18:37.134Z,100604.63
2022-08-17T05:21:04.354Z,100595.81
2022-08-17T05:23:38.485Z,100600.47
2022-08-17T05:26:17.969Z,100603.75
2022-08-17T05:28:54.946Z,100609.19
2022-08-17T05:31:24.471Z,100616.09
2022-08-17T05:33:51.117Z,100613.25
2022-08-17T05:36:42.014Z,100619.56
2022-08-17T05:39:08.027Z,100618.88
2022-08-17T05:41:34.500Z,100619.44
2022-08-17T05:44:00.961Z,100613.50
2022-08-17T05:46:38.971Z,100621.44
2022-08-17T05:49:11.202Z,100617.50
2022-08-17T05:52:20.258Z,100618.66
2022-08-17T05:54:48.199Z,100617.41
2022-08-17T05:57:43.430Z,100621.00
2022-08-17T06:00:31.401Z,100616.16
2022-08-17T06:03:31.828Z,100617.44
2022-08-17T06:06:25.208Z,100624.44
2022-08-17T06:09:42.458Z,100624.00
2022-08-17T06:12:30.335Z,100623.53
2022-08-17T06:15:23.673Z,100626.88
2022-08-17T06:17:55.008Z,100620.31
2022-08-17T06:20:22.733Z,100627.88
2022-08-17T06:22:56.047Z,100627.09
2022-08-17T06:25:37.207Z,100630.09
2022-08-17T06:28:14.984Z,100626.88
2022-08-17T06:31:00.241Z,100625.84
2022-08-17T06:33:35.102Z,100620.22
2022-08-17T06:36:26.339Z,100617.41
2022-08-17T06:39:35.910Z,100617.97
2022-08-17T06:43:02.358Z,100617.03
2022-08-17T06:45:34.204Z,100614.56
2022-08-17T06:48:13.411Z,100620.91
2022-08-17T06:50:48.297Z,100613.50
2022-08-17T06:53:46.373Z,100613.44
2022-08-17T06:56:24.269Z,100610.13
2022-08-17T06:59:20.042Z,100607.03
2022-08-17T07:01:49.951Z,100615.31
2022-08-17T07:04:21.640Z,100607.91
2022-08-17T07:06:52.682Z,100619.91
2022-08-17T07:09:23.423Z,100616.41
2022-08-17T07:11:58.946Z,100618.94
2022-08-17T07:14:31.909Z,100612.13
2022-08-17T07:17:02.741Z,100613.19
2022-08-17T07:19:32.799Z,100618.19
2022-08-17T07:22:22.430Z,100615.63
2022-08-17T07:24:58.264Z,100616.19
2022-08-17T07:27:31.313Z,100613.41
2022-08-17T07:30:10.868Z,100631.28
2022-08-17T07:32:59.782Z,100622.09
2022-08-17T07:35:31.212Z,100625.19
2022-08-17T07:38:24.250Z,100615.94
2022-08-17T07:41:01.814Z,100624.09
2022-08-17T07:43:40.575Z,100622.38
2022-08-17T07:46:52.489Z,100615.28
2022-08-17T07:49:22.404Z,100616.69
2022-08-17T07:51:49.858Z,100620.50
2022-08-17T07:54:24.258Z,100624.56
2022-08-17T07:57:15.697Z,100633.91
2022-08-17T08:00:16.504Z,100628.94
2022-08-17T08:02:45.944Z,100624.59
2022-08-17T08:05:48.709Z,100627.53
2022-08-17T08:08:18.575Z,100636.06
2022-08-17T08:10:58.507Z,100633.88
2022-08-17T08:13:28.736Z,100635.09
2022-08-17T08:16:12.033Z,100636.81
2022-08-17T08:18:55.999Z,100633.91
2022-08-17T08:21:43.742Z,100629.72
2022-08-17T08:24:22.016Z,100631.16
2022-08-17T08:26:58.187Z,100638.06
2022-08-17T08:29:55.131Z,100641.03
2022-08-17T08:32:44.206Z,100636.34
2022-08-17T08:35:28.035Z,100643.66
2022-08-17T08:38:07.562Z,100646.78
2022-08-17T08:41:00.761Z,100642.53
2022-08-17T08:43:38.023Z,100648.94
2022-08-17T08:46:25.042Z,100646.28
2022-08-17T08:49:13.077Z,100643.91
2022-08-17T08:52:01.807Z,100636.84
2022-08-17T08:54:45.883Z,100645.91
2022-08-17T08:57:30.812Z,100647.19
2022-08-17T09:00:17.337Z,100644.50
2022-08-17T09:03:19.166Z,100645.47
2022-08-17T09:06:37.623Z,100647.59
2022-08-17T09:09:27.159Z,100642.94
2022-08-17T09:12:16.803Z,100645.78
2022-08-17T09:15:13.278Z,100656.56
2022-08-17T09:17:47.392Z,100642.53
2022-08-17T09:20:48.095Z,100643.81
2022-08-17T09:23:25.292Z,100640.69
2022-08-17T09:25:59.791Z,100644.72
2022-08-17T09:28:35.105Z,100642.75
2022-08-17T09:31:07.933Z,100636.84
2022-08-17T09:33:42.355Z,100640.03
2022-08-17T09:36:15.487Z,100639.19
2022-08-17T09:38:58.634Z,100641.59
2022-08-17T09:41:32.258Z,100634.00
2022-08-17T09:44:23.222Z,100628.38
2022-08-17T09:47:07.990Z,100633.81
2022-08-17T09:49:53.259Z,100632.91
2022-08-17T09:52:23.287Z,100627.19
2022-08-17T09:54:52.557Z,100633.09
2022-08-17T09:57:52.682Z,100630.28
2022-08-17T10:00:23.803Z,100635.28
2022-08-17T10:03:25.571Z,100627.41
2022-08-17T10:06:06.633Z,100625.25
2022-08-17T10:09:08.184Z,100627.34
2022-08-17T10:12:23.735Z,100632.91
2022-08-17T10:15:19.753Z,100615.50
2022-08-17T10:18:17.639Z,100625.72
2022-08-17T10:21:19.676Z,100621.28
2022-08-17T10:24:12.905Z,100601.22
2022-08-17T10:26:55.958Z,100615.88
2022-08-17T10:29:48.823Z,100605.59
2022-08-17T10:32:32.771Z,100603.94
2022-08-17T10:35:29.228Z,100616.19
2022-08-17T10:38:17.022Z,100606.41
2022-08-17T10:41:24.396Z,100606.53
2022-08-17T10:44:37.374Z,100603.09
2022-08-17T10:47:10.408Z,100605.13
2022-08-17T10:49:49.582Z,100603.75
2022-08-17T10:52:19.667Z,100599.19
2022-08-17T10:54:49.391Z,100589.41
2022-08-17T10:57:34.298Z,100588.72
2022-08-17T11:00:25.533Z,100587.97
2022-08-17T11:02:55.744Z,100596.00
2022-08-17T11:05:41.478Z,100596.84
2022-08-17T11:08:13.248Z,100589.56
2022-08-17T11:10:52.904Z,100593.06
2022-08-17T11:13:44.805Z,100583.13
2022-08-17T11:16:26.467Z,100583.50
2022-08-17T11:19:30.877Z,100582.69
2022-08-17T11:22:16.091Z,100583.09
2022-08-17T11:24:51.391Z,100581.09
2022-08-17T11:27:30.647Z,100580.69
2022-08-17T11:30:04.550Z,100584.63
2022-08-17T11:32:47.337Z,100581.34
2022-08-17T11:35:20.499Z,100581.41
2022-08-17T11:38:14.009Z,100574.69
2022-08-17T11:41:08.954Z,100575.81
2022-08-17T11:44:02.012Z,100576.72
2022-08-17T11:47:00.291Z,100570.63
2022-08-17T11:50:00.735Z,100574.28
2022-08-17T11:52:46.768Z,100582.38
2022-08-17T11:55:36.326Z,100577.63
2022-08-17T11:58:29.577Z,100572.84
2022-08-17T12:01:06.168Z,100573.38
2022-08-17T12:03:33.217Z,100579.84
2022-08-17T12:06:07.039Z,100571.00
2022-08-17T12:08:41.659Z,100581.81
2022-08-17T12:11:18.892Z,100580.94
2022-08-17T12:14:06.543Z,100581.06
2022-08-17T12:16:32.966Z,100574.66
2022-08-17T12:19:02.414Z,100575.38
2022-08-17T12:21:55.115Z,100569.78
2022-08-17T12:24:39.773Z,100573.81
2022-08-17T12:27:07.594Z,100574.22
2022-08-17T12:29:39.137Z,100571.88
2022-08-17T12:32:07.069Z,100571.41
2022-08-17T12:34:42.957Z,100570.56
2022-08-17T12:37:31.485Z,100565.22
2022-08-17T12:40:08.465Z,100564.78
2022-08-17T12:42:37.714Z,100566.25
2022-08-17T12:45:07.435Z,100560.31
2022-08-17T12:47:37.466Z,100560.00
2022-08-17T12:50:29.259Z,100562.75
2022-08-17T12:52:59.651Z,100558.25
2022-08-17T12:55:33.746Z,100553.09
2022-08-17T12:58:00.871Z,100547.13
2022-08-17T13:00:33.232Z,100547.13
2022-08-17T13:03:38.585Z,100547.66
2022-08-17T13:06:09.113Z,100543.19
2022-08-17T13:08:43.141Z,100536.91
2022-08-17T13:11:18.674Z,100539.50
2022-08-17T13:13:54.654Z,100536.56
2022-08-17T13:16:31.619Z,100547.06
2022-08-17T13:19:13.736Z,100540.19
2022-08-17T13:21:47.961Z,100543.47
2022-08-17T13:24:22.263Z,100537.59
2022-08-17T13:27:01.079Z,100535.09
2022-08-17T13:29:38.838Z,100526.88
2022-08-17T13:32:13.518Z,100526.41
2022-08-17T13:35:14.931Z,100535.66
2022-08-17T13:38:01.875Z,100530.94
2022-08-17T13:40:42.417Z,100526.09
2022-08-17T13:43:10.183Z,100526.47
2022-08-17T13:45:51.976Z,100528.06
2022-08-17T13:48:29.572Z,100521.63
2022-08-17T13:50:55.933Z,100518.00
2022-08-17T13:53:26.614Z,100515.91
2022-08-17T13:56:37.587Z,100505.78
2022-08-17T13:59:12.383Z,100505.22
2022-08-17T14:01:52.560Z,100496.47
2022-08-17T14:04:27.791Z,100491.28
2022-08-17T14:06:59.577Z,100499.84
2022-08-17T14:09:33.572Z,100493.84
2022-08-17T14:12:05.969Z,100493.94
2022-08-17T14:14:32.531Z,100489.94
2022-08-17T14:16:58.991Z,100491.25
2022-08-17T14:19:26.378Z,100492.88
2022-08-17T14:21:58.764Z,100492.03
2022-08-17T14:24:35.042Z,100496.72
2022-08-17T14:27:04.263Z,100495.88
2022-08-17T14:29:32.420Z,100495.59
2022-08-17T14:32:04.272Z,100489.19
2022-08-17T14:34:30.704Z,100496.88
2022-08-17T14:36:57.212Z,100502.09
2022-08-17T14:39:24.057Z,100495.28
2022-08-17T14:41:53.912Z,100497.72
2022-08-17T14:44:20.451Z,100490.47
2022-08-17T14:46:47.928Z,100493.66
2022-08-17T14:49:15.678Z,100492.78
2022-08-17T14:51:43.808Z,100490.63
2022-08-17T14:54:32.965Z,100492.09
2022-08-17T14:57:23.392Z,100497.16
2022-08-17T14:59:54.832Z,100486.78
2022-08-17T15:02:30.342Z,100481.53
2022-08-17T15:05:02.830Z,100485.63
2022-08-17T15:07:30.294Z,100493.69
2022-08-17T15:09:58.479Z,100502.47
2022-08-17T15:12:32.819Z,100527.91
2022-08-17T15:15:01.081Z,100531.53
2022-08-17T15:17:43.772Z,100549.72
2022-08-17T15:20:17.705Z,100554.16
2022-08-17T15:22:45.575Z,100566.97
2022-08-17T15:25:19.102Z,100580.09
2022-08-17T15:27:45.771Z,100573.25
2022-08-17T15:30:15.230Z,100564.78
2022-08-17T15:32:50.825Z,100564.75
2022-08-17T15:35:27.255Z,100555.09
2022-08-17T15:38:06.287Z,100551.88
2022-08-17T15:40:40.394Z,100551.09
2022-08-17T15:43:14.151Z,100541.84
2022-08-17T15:45:40.677Z,100537.31
2022-08-17T15:48:07.860Z,100530.06
2022-08-17T15:50:35.428Z,100517.81
2022-08-17T15:53:04.657Z,100501.56
2022-08-17T15:55:31.929Z,100497.59
2022-08-17T15:57:58.458Z,100501.28
2022-08-17T16:00:25.976Z,100493.72
2022-08-17T16:03:45.668Z,100493.72
2022-08-17T16:05:40.739Z,100493.72
2022-08-17T16:08:07.899Z,100481.00
2022-08-17T16:10:35.103Z,100486.50
2022-08-17T16:13:03.789Z,100474.19
2022-08-17T16:15:33.386Z,100467.34
2022-08-17T16:17:59.860Z,100471.25
2022-08-17T16:20:26.965Z,100467.22
2022-08-17T16:22:54.985Z,100456.84
2022-08-17T16:25:52.328Z,100460.00
2022-08-17T16:28:18.937Z,100454.81
2022-08-17T16:30:45.442Z,100465.94
2022-08-17T16:33:12.599Z,100474.66
2022-08-17T16:35:39.885Z,100474.31
2022-08-17T16:38:07.126Z,100470.88
2022-08-17T16:40:36.090Z,100474.50
2022-08-17T16:43:04.150Z,100474.50
2022-08-17T16:45:36.663Z,100481.78
2022-08-17T16:48:03.746Z,100471.88
2022-08-17T16:50:31.853Z,100480.63
2022-08-17T16:53:11.090Z,100479.44
2022-08-17T16:55:37.680Z,100480.69
2022-08-17T16:58:05.429Z,100489.88
2022-08-17T17:00:33.548Z,100487.53
2022-08-17T17:03:19.116Z,100476.75
2022-08-17T17:06:14.003Z,100474.78
2022-08-17T17:08:50.660Z,100469.19
2022-08-17T17:11:24.791Z,100482.75
2022-08-17T17:13:59.953Z,100475.50
2022-08-17T17:17:03.083Z,100478.28
2022-08-17T17:20:21.817Z,100472.63
2022-08-17T17:22:52.774Z,100465.81
2022-08-17T17:25:36.120Z,100462.56
2022-08-17T17:28:35.521Z,100473.59
2022-08-17T17:31:16.638Z,100473.56
2022-08-17T17:33:52.466Z,100480.28
2022-08-17T17:36:38.252Z,100485.31
2022-08-17T17:39:15.331Z,100490.81
2022-08-17T17:41:51.806Z,100492.19
2022-08-17T17:44:24.840Z,100492.88
2022-08-17T17:47:00.803Z,100499.16
2022-08-17T17:49:32.941Z,100510.88
2022-08-17T17:52:12.328Z,100515.19
2022-08-17T17:55:05.395Z,100518.38
2022-08-17T17:58:02.847Z,100526.47
2022-08-17T18:00:34.861Z,100531.16
2022-08-17T18:03:27.638Z,100525.47
2022-08-17T18:06:08.114Z,100533.88
2022-08-17T18:08:45.825Z,100530.97
2022-08-17T18:11:25.043Z,100539.31
2022-08-17T18:14:03.156Z,100535.25
2022-08-17T18:16:32.800Z,100537.13
2022-08-17T18:18:59.741Z,100534.38
2022-08-17T18:21:37.889Z,100540.59
2022-08-17T18:24:07.565Z,100533.63
2022-08-17T18:26:55.189Z,100532.41
2022-08-17T18:29:21.751Z,100536.25
2022-08-17T18:31:49.006Z,100534.22
2022-08-17T18:37:13.038Z,100523.44
2022-08-17T18:39:44.294Z,100521.78
2022-08-17T18:42:25.933Z,100530.81
2022-08-17T18:44:55.268Z,100537.00
2022-08-17T18:47:25.200Z,100521.94
2022-08-17T18:49:57.675Z,100535.44
2022-08-17T18:52:34.007Z,100539.41
2022-08-17T18:55:23.497Z,100538.06
2022-08-17T18:57:54.649Z,100535.88
2022-08-17T19:00:39.346Z,100534.69
2022-08-17T19:03:23.264Z,100531.81
2022-08-17T19:05:53.427Z,100526.06
2022-08-17T19:08:29.487Z,100520.91
2022-08-17T19:11:20.720Z,100514.09
2022-08-17T19:13:55.109Z,100517.69
2022-08-17T19:16:29.479Z,100517.19
2022-08-17T19:19:07.672Z,100512.72
2022-08-17T19:21:39.135Z,100517.06
2022-08-17T19:24:09.623Z,100521.66
2022-08-17T19:26:51.308Z,100525.94
2022-08-17T19:29:31.088Z,100517.47
2022-08-17T19:31:58.739Z,100523.97
2022-08-17T19:34:30.012Z,100521.78
2022-08-17T19:37:06.816Z,100535.56
2022-08-17T19:40:41.821Z,100535.19
2022-08-17T19:43:38.820Z,100538.31
2022-08-17T19:46:28.944Z,100534.81
2022-08-17T19:49:06.021Z,100543.22
2022-08-17T19:51:49.099Z,100542.75
2022-08-17T19:54:24.658Z,100538.13
2022-08-17T19:57:31.991Z,100547.94
2022-08-17T20:00:11.739Z,100547.25
2022-08-17T20:03:06.419Z,100551.09
2022-08-17T20:06:11.553Z,100539.84
2022-08-17T20:08:57.532Z,100543.34
2022-08-17T20:11:32.255Z,100546.38
2022-08-17T20:14:05.395Z,100536.53
2022-08-17T20:16:33.469Z,100543.13
2022-08-17T20:19:11.292Z,100546.28
2022-08-17T20:21:49.120Z,100539.50
2022-08-17T20:24:20.826Z,100541.44
2022-08-17T20:27:09.190Z,100548.16
2022-08-17T20:30:00.256Z,100542.34
2022-08-17T20:32:56.208Z,100541.72
2022-08-17T20:35:27.464Z,100543.50
2022-08-17T20:38:36.110Z,100539.56
2022-08-17T20:41:03.051Z,100546.78
2022-08-17T20:43:29.966Z,100552.50
2022-08-17T20:46:20.035Z,100563.78
2022-08-17T20:48:50.823Z,100559.84
2022-08-17T20:51:27.078Z,100559.84
2022-08-17T20:53:53.550Z,100544.66
2022-08-17T20:56:44.749Z,100550.19
2022-08-17T20:59:20.534Z,100556.09
2022-08-17T21:02:06.657Z,100551.69
2022-08-17T21:04:54.776Z,100551.63
2022-08-17T21:07:42.644Z,100546.06
2022-08-17T21:10:37.217Z,100546.00
2022-08-17T21:13:15.717Z,100548.69
2022-08-17T21:15:43.953Z,100552.97
2022-08-17T21:18:38.515Z,100551.81
2022-08-17T21:21:26.641Z,100560.72
2022-08-17T21:24:43.476Z,100558.06
2022-08-17T21:27:37.257Z,100563.03
2022-08-17T21:30:09.015Z,100569.50
2022-08-17T21:32:40.500Z,100571.53
2022-08-17T21:35:11.374Z,100571.06
2022-08-17T21:37:48.383Z,100566.78
2022-08-17T21:40:32.213Z,100574.00
2022-08-17T21:43:23.877Z,100576.16
2022-08-17T21:46:23.672Z,100588.59
2022-08-17T21:48:54.396Z,100579.31
2022-08-17T21:51:26.031Z,100583.13
2022-08-17T21:53:58.232Z,100586.91
2022-08-17T21:56:47.347Z,100582.66
2022-08-17T21:59:30.692Z,100580.13
2022-08-17T22:02:02.111Z,100581.84
2022-08-17T22:04:36.302Z,100578.84
2022-08-17T22:09:58.364Z,100575.22
2022-08-17T22:12:28.900Z,100574.97
2022-08-17T22:14:55.403Z,100585.59
2022-08-17T22:17:35.347Z,100592.84
2022-08-17T22:20:14.350Z,100588.19
2022-08-17T22:23:12.859Z,100602.16
2022-08-17T22:25:57.321Z,100598.16
2022-08-17T22:28:57.578Z,100597.47
2022-08-17T22:31:30.139Z,100600.03
2022-08-17T22:33:59.855Z,100600.84
2022-08-17T22:36:34.413Z,100610.41
2022-08-17T22:39:08.225Z,100621.22
2022-08-17T22:41:41.136Z,100633.69
2022-08-17T22:44:33.860Z,100634.56
2022-08-17T22:47:17.415Z,100643.56
2022-08-17T22:50:11.827Z,100640.09
2022-08-17T22:53:02.928Z,100647.84
2022-08-17T22:55:51.300Z,100652.75
2022-08-17T22:58:42.286Z,100660.81
2022-08-17T23:01:26.373Z,100650.56
2022-08-17T23:03:57.059Z,100652.16
2022-08-17T23:06:24.722Z,100648.59
2022-08-17T23:08:56.495Z,100649.75
2022-08-17T23:11:36.698Z,100652.16
2022-08-17T23:14:20.246Z,100661.13
2022-08-17T23:16:53.712Z,100646.31
2022-08-17T23:19:21.456Z,100645.84
2022-08-17T23:21:56.551Z,100639.63
2022-08-17T23:24:26.830Z,100638.94
2022-08-17T23:26:57.237Z,100634.09
2022-08-17T23:29:25.159Z,100643.09
2022-08-17T23:31:52.625Z,100638.13
2022-08-17T23:34:19.725Z,100633.31
2022-08-17T23:36:52.576Z,100628.22
2022-08-17T23:39:27.686Z,100632.50
2022-08-17T23:41:56.988Z,100639.03
2022-08-17T23:44:23.758Z,100631.09
2022-08-17T23:46:54.457Z,100641.69
2022-08-17T23:49:25.294Z,100642.59
2022-08-17T23:51:56.881Z,100637.34
2022-08-17T23:54:43.456Z,100637.78
2022-08-17T23:57:13.877Z,100634.59
2022-08-17T23:59:40.614Z,100637.19
